createdAt,value
2023-04-15T00:01:45.286Z,6.67
2023-04-15T00:04:41.438Z,6.63
2023-04-15T00:07:36.886Z,6.58
2023-04-15T00:10:33.037Z,6.54
2023-04-15T00:13:35.284Z,6.51
2023-04-15T00:16:31.649Z,6.49
2023-04-15T00:19:42.887Z,6.50
2023-04-15T00:22:33.586Z,6.53
2023-04-15T00:25:37.620Z,6.55
2023-04-15T00:28:33.823Z,6.56
2023-04-15T00:31:35.572Z,6.59
2023-04-15T00:34:38.071Z,6.60
2023-04-15T00:37:49.250Z,6.61
2023-04-15T00:40:49.105Z,6.60
2023-04-15T00:43:48.974Z,6.59
2023-04-15T00:46:45.618Z,6.58
2023-04-15T00:49:41.653Z,6.55
2023-04-15T00:52:37.307Z,6.49
2023-04-15T00:55:31.374Z,6.42
2023-04-15T00:58:28.163Z,6.38
2023-04-15T01:01:28.943Z,6.33
2023-04-15T01:04:19.574Z,6.28
2023-04-15T01:07:19.716Z,6.24
2023-04-15T01:10:11.331Z,6.20
2023-04-15T01:13:11.205Z,6.16
2023-04-15T01:16:08.865Z,6.15
2023-04-15T01:19:19.806Z,6.14
2023-04-15T01:22:13.252Z,6.14
2023-04-15T01:25:10.767Z,6.16
2023-04-15T01:28:22.037Z,6.18
2023-04-15T01:31:32.220Z,6.21
2023-04-15T01:34:23.593Z,6.23
2023-04-15T01:37:17.642Z,6.24
2023-04-15T01:40:17.371Z,6.22
2023-04-15T01:43:13.735Z,6.20
2023-04-15T01:46:10.069Z,6.16
2023-04-15T01:49:01.164Z,6.11
2023-04-15T01:52:12.439Z,6.07
2023-04-15T01:55:09.982Z,6.02
2023-04-15T01:58:20.912Z,5.97
2023-04-15T02:01:17.247Z,5.94
2023-04-15T02:04:09.905Z,5.90
2023-04-15T02:07:06.060Z,5.85
2023-04-15T02:09:56.850Z,5.81
2023-04-15T02:12:50.742Z,5.77
2023-04-15T02:15:41.904Z,5.73
2023-04-15T02:18:52.994Z,5.67
2023-04-15T02:21:55.471Z,5.64
2023-04-15T02:24:47.588Z,5.60
2023-04-15T02:27:43.358Z,5.57
2023-04-15T02:30:36.206Z,5.54
2023-04-15T02:33:32.627Z,5.52
2023-04-15T02:36:32.133Z,5.51
2023-04-15T02:39:29.069Z,5.49
2023-04-15T02:42:22.884Z,5.49
2023-04-15T02:45:20.497Z,5.49
2023-04-15T02:48:19.136Z,5.50
2023-04-15T02:51:19.981Z,5.52
2023-04-15T02:54:26.064Z,5.55
2023-04-15T02:57:17.645Z,5.56
2023-04-15T03:00:18.043Z,5.60
2023-04-15T03:03:11.731Z,5.62
2023-04-15T03:06:07.121Z,5.62
2023-04-15T03:09:00.599Z,5.62
2023-04-15T03:11:57.153Z,5.59
2023-04-15T03:14:48.421Z,5.57
2023-04-15T03:17:49.863Z,5.54
2023-04-15T03:20:41.418Z,5.49
2023-04-15T03:23:42.192Z,5.45
2023-04-15T03:26:40.293Z,5.41
2023-04-15T03:29:51.895Z,5.37
2023-04-15T03:32:54.933Z,5.32
2023-04-15T03:35:48.005Z,5.28
2023-04-15T03:38:41.466Z,5.22
2023-04-15T03:41:38.046Z,5.19
2023-04-15T03:44:40.231Z,5.17
2023-04-15T03:47:51.158Z,5.13
2023-04-15T03:50:47.408Z,5.12
2023-04-15T03:53:43.474Z,5.10
2023-04-15T03:56:41.704Z,5.10
2023-04-15T03:59:32.349Z,5.11
2023-04-15T04:02:43.627Z,5.15
2023-04-15T04:05:45.707Z,5.18
2023-04-15T04:08:47.493Z,5.20
2023-04-15T04:11:58.009Z,5.22
2023-04-15T04:15:09.731Z,5.24
2023-04-15T04:18:09.596Z,5.24
2023-04-15T04:21:05.660Z,5.23
2023-04-15T04:24:05.473Z,5.22
2023-04-15T04:27:16.288Z,5.19
2023-04-15T04:30:10.210Z,5.17
2023-04-15T04:33:11.868Z,5.14
2023-04-15T04:36:08.838Z,5.08
2023-04-15T04:39:05.422Z,5.03
2023-04-15T04:42:03.788Z,4.99
2023-04-15T04:44:59.671Z,4.93
2023-04-15T04:47:56.047Z,4.87
2023-04-15T04:50:56.803Z,4.82
2023-04-15T04:53:58.209Z,4.78
2023-04-15T04:56:53.927Z,4.73
2023-04-15T04:59:50.204Z,4.70
2023-04-15T05:02:44.337Z,4.66
2023-04-15T05:05:46.730Z,4.62
2023-04-15T05:08:47.267Z,4.59
2023-04-15T05:11:43.067Z,4.55
2023-04-15T05:14:46.925Z,4.52
2023-04-15T05:17:45.184Z,4.50
2023-04-15T05:20:40.744Z,4.47
2023-04-15T05:23:35.020Z,4.45
2023-04-15T05:26:31.766Z,4.44
2023-04-15T05:29:33.354Z,4.45
2023-04-15T05:32:28.806Z,4.45
2023-04-15T05:35:25.140Z,4.47
2023-04-15T05:38:20.683Z,4.49
2023-04-15T05:41:22.627Z,4.52
2023-04-15T05:44:20.540Z,4.56
2023-04-15T05:47:21.951Z,4.61
2023-04-15T05:50:25.630Z,4.66
2023-04-15T05:53:22.364Z,4.71
2023-04-15T05:56:17.735Z,4.74
2023-04-15T05:59:13.343Z,4.77
2023-04-15T06:02:15.367Z,4.78
2023-04-15T06:05:19.293Z,4.78
2023-04-15T06:08:30.482Z,4.77
2023-04-15T06:11:24.336Z,4.77
2023-04-15T06:14:17.792Z,4.77
2023-04-15T06:17:08.925Z,4.78
2023-04-15T06:20:02.900Z,4.80
2023-04-15T06:23:10.259Z,4.81
2023-04-15T06:26:07.454Z,4.84
2023-04-15T06:29:18.194Z,4.87
2023-04-15T06:32:29.420Z,4.90
2023-04-15T06:35:40.780Z,4.95
2023-04-15T06:42:06.164Z,5.06
2023-04-15T06:44:56.942Z,5.12
2023-04-15T06:47:53.024Z,5.19
2023-04-15T06:50:44.100Z,5.27
2023-04-15T06:53:45.223Z,5.37
2023-04-15T06:56:36.524Z,5.47
2023-04-15T06:59:31.012Z,5.60
2023-04-15T07:02:22.118Z,5.72
2023-04-15T07:05:19.173Z,5.87
2023-04-15T07:08:10.142Z,6.02
2023-04-15T07:11:11.908Z,6.19
2023-04-15T07:14:07.587Z,6.43
2023-04-15T07:17:02.494Z,6.84
2023-04-15T07:19:59.004Z,7.53
2023-04-15T07:22:54.034Z,8.39
2023-04-15T07:25:53.932Z,9.38
2023-04-15T07:28:47.690Z,10.11
2023-04-15T07:31:38.263Z,10.88
2023-04-15T07:34:30.680Z,11.76
2023-04-15T07:37:22.091Z,12.69
2023-04-15T07:40:16.814Z,13.49
2023-04-15T07:43:07.745Z,14.37
2023-04-15T07:45:58.916Z,15.19
2023-04-15T07:48:54.997Z,15.96
2023-04-15T07:51:46.128Z,16.89
2023-04-15T07:54:36.910Z,17.82
2023-04-15T07:57:27.564Z,18.77
2023-04-15T08:00:18.456Z,19.62
2023-04-15T08:03:09.131Z,20.05
2023-04-15T08:06:00.132Z,20.39
2023-04-15T08:08:51.095Z,20.51
2023-04-15T08:11:42.416Z,21.21
2023-04-15T08:14:33.012Z,21.95
2023-04-15T08:17:23.953Z,22.79
2023-04-15T08:20:17.633Z,23.23
2023-04-15T08:23:08.911Z,23.51
2023-04-15T08:25:59.633Z,24.08
2023-04-15T08:28:50.529Z,24.86
2023-04-15T08:31:41.487Z,25.55
2023-04-15T08:34:32.398Z,26.24
2023-04-15T08:37:23.375Z,26.97
2023-04-15T08:40:17.888Z,27.57
2023-04-15T08:43:10.773Z,28.11
2023-04-15T08:46:02.107Z,28.63
2023-04-15T08:48:53.557Z,28.96
2023-04-15T08:51:44.228Z,29.35
2023-04-15T08:54:35.173Z,29.84
2023-04-15T08:57:27.785Z,30.24
2023-04-15T09:00:18.671Z,30.47
2023-04-15T09:03:09.970Z,30.75
2023-04-15T09:06:01.228Z,30.91
2023-04-15T09:08:53.127Z,30.82
2023-04-15T09:11:43.843Z,30.71
2023-04-15T09:14:35.197Z,30.68
2023-04-15T09:17:26.828Z,30.91
2023-04-15T09:20:18.946Z,30.45
2023-04-15T09:23:15.332Z,30.65
2023-04-15T09:26:06.555Z,29.98
2023-04-15T09:29:03.770Z,30.44
2023-04-15T09:31:54.843Z,31.20
2023-04-15T09:34:46.151Z,32.00
2023-04-15T09:37:39.632Z,32.83
2023-04-15T09:40:37.727Z,33.56
2023-04-15T09:43:40.245Z,34.22
2023-04-15T09:46:46.595Z,34.77
2023-04-15T09:49:39.548Z,35.18
2023-04-15T09:52:31.234Z,35.52
2023-04-15T09:55:23.845Z,35.97
2023-04-15T09:58:20.793Z,36.29
2023-04-15T10:01:12.055Z,36.46
2023-04-15T10:04:04.769Z,36.71
2023-04-15T10:06:55.826Z,36.73
2023-04-15T10:09:47.463Z,36.79
2023-04-15T10:12:38.739Z,37.25
2023-04-15T10:15:30.346Z,37.90
2023-04-15T10:18:23.977Z,38.21
2023-04-15T10:21:19.019Z,38.10
2023-04-15T10:24:09.999Z,38.09
2023-04-15T10:27:11.508Z,38.31
2023-04-15T10:30:05.163Z,38.42
2023-04-15T10:32:56.618Z,38.54
2023-04-15T10:35:51.954Z,38.84
2023-04-15T10:45:51.674Z,38.41
2023-04-15T10:48:48.334Z,37.69
2023-04-15T10:59:38.738Z,36.53
2023-04-15T11:02:48.781Z,35.79
2023-04-15T11:06:02.589Z,35.13
2023-04-15T11:09:34.259Z,34.69
2023-04-15T11:12:37.394Z,34.76
2023-04-15T11:15:52.399Z,34.74
2023-04-15T11:18:59.791Z,34.53
2023-04-15T11:22:33.132Z,34.03
2023-04-15T11:25:28.563Z,33.60
2023-04-15T11:28:24.068Z,33.30
2023-04-15T11:31:24.654Z,32.98
2023-04-15T11:34:26.398Z,32.86
2023-04-15T11:37:50.192Z,32.73
2023-04-15T11:40:49.160Z,32.39
2023-04-15T11:44:20.876Z,31.54
2023-04-15T11:47:25.274Z,30.70
2023-04-15T11:50:26.425Z,30.00
2023-04-15T11:53:30.050Z,29.58
2023-04-15T11:56:24.576Z,29.36
2023-04-15T11:59:18.035Z,29.35
2023-04-15T12:02:14.790Z,29.30
2023-04-15T12:05:09.092Z,29.06
2023-04-15T12:08:47.104Z,29.01
2023-04-15T12:12:31.682Z,28.74
2023-04-15T12:16:35.242Z,28.55
2023-04-15T12:20:30.040Z,27.40
2023-04-15T12:23:42.234Z,25.79
2023-04-15T12:27:00.184Z,24.71
2023-04-15T12:29:48.801Z,24.73
2023-04-15T12:32:43.585Z,25.12
2023-04-15T12:35:55.663Z,25.17
2023-04-15T12:39:46.899Z,24.72
2023-04-15T12:43:05.465Z,24.12
2023-04-15T12:46:36.194Z,23.95
2023-04-15T12:49:23.566Z,23.76
2023-04-15T12:52:14.357Z,23.44
2023-04-15T12:55:05.096Z,23.07
2023-04-15T12:57:55.857Z,22.61
2023-04-15T13:00:47.160Z,22.08
2023-04-15T13:03:39.372Z,21.73
2023-04-15T13:06:30.805Z,21.40
2023-04-15T13:09:23.699Z,21.10
2023-04-15T13:12:15.586Z,20.79
2023-04-15T13:15:27.847Z,20.61
2023-04-15T13:18:31.284Z,20.58
2023-04-15T13:21:22.353Z,20.57
2023-04-15T13:24:39.714Z,20.61
2023-04-15T13:27:32.514Z,20.68
2023-04-15T13:30:23.000Z,20.81
2023-04-15T13:33:14.049Z,20.98
2023-04-15T13:36:04.998Z,21.04
2023-04-15T13:38:55.960Z,21.10
2023-04-15T13:41:48.716Z,21.07
2023-04-15T13:44:41.963Z,21.03
2023-04-15T13:47:33.198Z,20.94
2023-04-15T13:50:24.324Z,20.88
2023-04-15T13:53:15.150Z,20.93
2023-04-15T13:56:06.509Z,20.97
2023-04-15T13:58:59.150Z,21.01
2023-04-15T14:01:49.675Z,21.07
2023-04-15T14:04:40.333Z,21.15
2023-04-15T14:07:33.582Z,21.22
2023-04-15T14:10:29.059Z,21.16
2023-04-15T14:13:39.919Z,21.06
2023-04-15T14:16:33.087Z,20.89
2023-04-15T14:19:33.102Z,20.65
2023-04-15T14:22:23.921Z,20.48
2023-04-15T14:25:20.181Z,20.29
2023-04-15T14:28:21.172Z,20.11
2023-04-15T14:31:12.558Z,19.89
2023-04-15T14:34:03.637Z,19.61
2023-04-15T14:36:54.396Z,19.41
2023-04-15T14:39:45.527Z,19.25
2023-04-15T14:42:38.153Z,19.06
2023-04-15T14:45:28.941Z,18.84
2023-04-15T14:48:19.951Z,18.64
2023-04-15T14:51:10.856Z,18.41
2023-04-15T14:54:04.458Z,18.19
2023-04-15T14:56:56.081Z,18.01
2023-04-15T14:59:46.689Z,17.92
2023-04-15T15:02:40.621Z,17.83
2023-04-15T15:05:31.541Z,17.78
2023-04-15T15:08:22.486Z,17.69
2023-04-15T15:11:13.197Z,17.51
2023-04-15T15:14:03.959Z,17.32
2023-04-15T15:16:54.748Z,17.15
2023-04-15T15:20:06.283Z,16.99
2023-04-15T15:22:57.159Z,16.92
2023-04-15T15:25:49.074Z,16.87
2023-04-15T15:28:39.816Z,16.81
2023-04-15T15:31:59.002Z,16.69
2023-04-15T15:34:49.481Z,16.57
2023-04-15T15:37:40.362Z,16.43
2023-04-15T15:40:31.150Z,16.30
2023-04-15T15:43:24.243Z,16.16
2023-04-15T15:46:14.965Z,16.01
2023-04-15T15:49:06.010Z,15.90
2023-04-15T15:51:59.288Z,15.83
2023-04-15T15:54:50.128Z,15.74
2023-04-15T15:57:40.969Z,15.62
2023-04-15T16:00:34.673Z,15.54
2023-04-15T16:03:25.653Z,15.53
2023-04-15T16:06:16.765Z,15.50
2023-04-15T16:09:07.528Z,15.44
2023-04-15T16:11:58.936Z,15.37
2023-04-15T16:14:49.581Z,15.29
2023-04-15T16:17:40.662Z,15.21
2023-04-15T16:20:31.304Z,15.12
2023-04-15T16:23:21.937Z,15.02
2023-04-15T16:26:12.835Z,14.90
2023-04-15T16:29:04.708Z,14.76
2023-04-15T16:31:56.462Z,14.62
2023-04-15T16:34:48.117Z,14.52
2023-04-15T16:37:41.643Z,14.45
2023-04-15T16:40:33.236Z,14.42
2023-04-15T16:43:23.942Z,14.43
2023-04-15T16:46:17.857Z,14.42
2023-04-15T16:49:08.542Z,14.40
2023-04-15T16:52:02.808Z,14.40
2023-04-15T16:54:53.840Z,14.38
2023-04-15T16:58:02.335Z,14.31
2023-04-15T17:00:54.710Z,14.21
2023-04-15T17:03:48.510Z,14.12
2023-04-15T17:06:39.183Z,14.04
2023-04-15T17:09:30.040Z,13.96
2023-04-15T17:12:20.687Z,13.83
2023-04-15T17:15:11.794Z,13.68
2023-04-15T17:18:02.416Z,13.55
2023-04-15T17:20:56.342Z,13.45
2023-04-15T17:23:46.956Z,13.36
2023-04-15T17:26:41.399Z,13.26
2023-04-15T17:29:36.886Z,13.14
2023-04-15T17:32:34.585Z,13.07
2023-04-15T17:35:28.624Z,13.03
2023-04-15T17:38:22.025Z,12.99
2023-04-15T17:41:16.590Z,12.95
2023-04-15T17:44:07.358Z,12.95
2023-04-15T17:46:58.034Z,12.93
2023-04-15T17:49:52.211Z,12.93
2023-04-15T17:52:42.959Z,12.94
2023-04-15T17:55:34.464Z,12.94
2023-04-15T17:58:30.267Z,12.94
2023-04-15T18:01:22.645Z,12.96
2023-04-15T18:04:13.620Z,12.96
2023-04-15T18:07:09.688Z,12.96
2023-04-15T18:10:03.483Z,12.93
2023-04-15T18:12:57.336Z,12.90
2023-04-15T18:15:51.507Z,12.90
2023-04-15T18:18:42.170Z,12.89
2023-04-15T18:21:36.141Z,12.90
2023-04-15T18:24:31.555Z,12.88
2023-04-15T18:27:24.635Z,12.83
2023-04-15T18:30:15.674Z,12.75
2023-04-15T18:33:08.906Z,12.67
2023-04-15T18:35:59.632Z,12.60
2023-04-15T18:38:52.771Z,12.53
2023-04-15T18:41:43.708Z,12.43
2023-04-15T18:44:34.351Z,12.30
2023-04-15T18:47:27.155Z,12.16
2023-04-15T18:50:18.182Z,12.01
2023-04-15T18:53:08.780Z,11.87
2023-04-15T18:56:01.862Z,11.75
2023-04-15T18:59:08.611Z,11.63
2023-04-15T19:02:06.528Z,11.54
2023-04-15T19:04:57.596Z,11.48
2023-04-15T19:07:48.408Z,11.41
2023-04-15T19:10:39.329Z,11.32
2023-04-15T19:13:32.465Z,11.20
2023-04-15T19:16:23.573Z,11.08
2023-04-15T19:19:15.314Z,10.97
2023-04-15T19:22:06.857Z,10.87
2023-04-15T19:24:57.704Z,10.78
2023-04-15T19:27:50.558Z,10.71
2023-04-15T19:30:43.600Z,10.64
2023-04-15T19:33:35.209Z,10.58
2023-04-15T19:36:28.307Z,10.53
2023-04-15T19:39:31.827Z,10.44
2023-04-15T19:46:40.745Z,10.11
2023-04-15T19:49:34.243Z,9.95
2023-04-15T19:52:25.796Z,9.74
2023-04-15T19:55:16.684Z,9.55
2023-04-15T19:58:07.364Z,9.38
2023-04-15T20:00:58.034Z,9.27
2023-04-15T20:03:48.928Z,9.19
2023-04-15T20:06:39.936Z,9.13
2023-04-15T20:09:30.864Z,9.10
2023-04-15T20:12:50.008Z,9.09
2023-04-15T20:15:32.279Z,9.09
2023-04-15T20:18:22.999Z,9.10
2023-04-15T20:21:13.683Z,9.13
2023-04-15T20:24:04.739Z,9.11
2023-04-15T20:26:58.386Z,9.07
2023-04-15T20:29:58.437Z,9.03
2023-04-15T20:33:00.692Z,8.98
2023-04-15T20:35:57.178Z,8.91
2023-04-15T20:38:53.479Z,8.86
2023-04-15T20:41:44.122Z,8.85
2023-04-15T20:44:35.755Z,8.86
2023-04-15T20:47:26.506Z,8.82
2023-04-15T20:50:17.373Z,8.81
2023-04-15T20:53:28.350Z,8.81
2023-04-15T20:56:18.975Z,8.80
2023-04-15T20:59:30.308Z,8.81
2023-04-15T21:02:25.297Z,8.85
2023-04-15T21:05:19.157Z,8.88
2023-04-15T21:08:14.723Z,8.92
2023-04-15T21:11:11.780Z,8.92
2023-04-15T21:14:02.831Z,8.94
2023-04-15T21:16:53.853Z,8.95
2023-04-15T21:19:44.778Z,8.97
2023-04-15T21:22:35.205Z,8.97
2023-04-15T21:25:43.088Z,9.00
2023-04-15T21:28:40.752Z,9.07
2023-04-15T21:31:31.852Z,9.15
2023-04-15T21:34:46.742Z,9.22
2023-04-15T21:37:38.117Z,9.29
2023-04-15T21:40:40.792Z,9.34
2023-04-15T21:43:36.225Z,9.33
2023-04-15T21:46:32.825Z,9.30
2023-04-15T21:49:46.710Z,9.24
2023-04-15T21:52:40.108Z,9.22
2023-04-15T21:55:41.154Z,9.21
2023-04-15T21:58:52.424Z,9.19
2023-04-15T22:01:51.165Z,9.16
2023-04-15T22:04:42.076Z,9.17
2023-04-15T22:07:45.670Z,9.17
2023-04-15T22:10:40.275Z,9.15
2023-04-15T22:13:30.952Z,9.13
2023-04-15T22:16:42.308Z,9.12
2023-04-15T22:19:46.984Z,9.13
2023-04-15T22:22:49.095Z,9.15
2023-04-15T22:26:05.933Z,9.15
2023-04-15T22:29:16.908Z,9.15
2023-04-15T22:32:18.436Z,9.13
2023-04-15T22:35:15.190Z,9.13
2023-04-15T22:38:26.122Z,9.14
2023-04-15T22:41:16.724Z,9.15
2023-04-15T22:44:10.294Z,9.14
2023-04-15T22:47:05.999Z,9.14
2023-04-15T22:50:02.382Z,9.16
2023-04-15T22:52:55.854Z,9.19
2023-04-15T22:55:57.405Z,9.21
2023-04-15T22:58:54.025Z,9.26
2023-04-15T23:01:45.342Z,9.31
2023-04-15T23:04:41.090Z,9.36
2023-04-15T23:07:37.388Z,9.38
2023-04-15T23:10:31.183Z,9.39
2023-04-15T23:13:22.168Z,9.43
2023-04-15T23:16:18.821Z,9.50
2023-04-15T23:19:16.754Z,9.56
2023-04-15T23:22:12.267Z,9.61
2023-04-15T23:25:15.983Z,9.66
2023-04-15T23:28:09.942Z,9.68
2023-04-15T23:31:00.944Z,9.65
2023-04-15T23:33:51.653Z,9.63
2023-04-15T23:36:42.469Z,9.62
2023-04-15T23:39:36.459Z,9.62
2023-04-15T23:42:27.309Z,9.59
2023-04-15T23:45:21.040Z,9.56
2023-04-15T23:48:11.917Z,9.54
2023-04-15T23:51:07.158Z,9.50
2023-04-15T23:54:01.425Z,9.46
2023-04-15T23:56:56.592Z,9.40
2023-04-15T23:59:50.343Z,9.37
